Shaftsbury Center, Vermont
Current Conditions -  °F | °C
As of 4:54 AM on Sunday 26 Oct 2014 (Local Time) from KDDH Reporting Station
Broken Clouds Broken Clouds  
Wind Chill: 44°   Ceiling: 5000
Heat Index: 49°   Visibility: 10mi
Dew Point: 41°   Wind: 12mph
Humidity: 74%   Direction: 230°SW
Pressure: 29.5"   Gusts: NA
Location:  42.9815°N, 73.2071°W
Report Text: KDDH 260854Z AUTO 23010KT 10SM FEW036 SCT043 BKN050 09/05 A2950 RMK AO2 SLP990 T00940050 53001
Loading
Personal Weather Stations






























Interactive Weather Map New forecast layout! Learn more

10-Day Weather Forecast

Advertisements
Track Severe Weather on mobile